Terminal Aerodrome Forecast
Issued by NWS Sioux Falls, SD

Home | Current Version | Previous Version | Graphics & Text | Print | Product List | Glossary On
Versions: 1 2 3 4 5 6 7 8 9 10 11 12 13 14 15 16 17 18 19 20 21 22 23 24 25 26
000
FTUS43 KFSD 171727
TAFSUX
TAF
KSUX 171727Z 1718/1818 09007KT P6SM SCT045 BKN120
     FM180000 08005KT P6SM VCTS SCT060CB OVC120
     FM180300 18006KT P6SM SCT050 OVC120
     FM181200 09007KT P6SM -RA VCTS OVC040CB=

USA.gov is the U.S. government's official web portal to all federal, state and local government web resources and services.